createdAt,value
2022-12-18T00:01:26.357Z,18.5
2022-12-18T00:03:06.817Z,18.5
2022-12-18T00:04:47.129Z,18.5
2022-12-18T00:06:27.517Z,18.5
2022-12-18T00:08:09.574Z,18.5
2022-12-18T00:09:48.261Z,18.5
2022-12-18T00:11:28.678Z,15.7
2022-12-18T00:13:10.259Z,15.7
2022-12-18T00:14:49.410Z,15.7
2022-12-18T00:16:29.854Z,15.7
2022-12-18T00:18:10.142Z,15.7
2022-12-18T00:19:50.611Z,15.7
2022-12-18T00:21:30.923Z,17.4
2022-12-18T00:23:11.212Z,17.4
2022-12-18T00:24:51.515Z,17.4
2022-12-18T00:26:31.794Z,17.4
2022-12-18T00:28:12.086Z,17.4
2022-12-18T00:29:52.421Z,17.4
2022-12-18T00:31:32.832Z,16.4
2022-12-18T00:33:13.000Z,16.4
2022-12-18T00:34:53.298Z,16.4
2022-12-18T00:36:33.567Z,16.4
2022-12-18T00:38:13.890Z,16.4
2022-12-18T00:39:54.188Z,16.4
2022-12-18T00:41:34.500Z,16.7
2022-12-18T00:43:14.785Z,16.7
2022-12-18T00:44:55.082Z,16.7
2022-12-18T00:46:35.363Z,16.7
2022-12-18T00:48:15.670Z,16.7
2022-12-18T00:49:55.934Z,16.7
2022-12-18T00:51:36.230Z,19.9
2022-12-18T00:53:16.516Z,19.9
2022-12-18T00:54:58.117Z,19.9
2022-12-18T00:56:39.376Z,19.9
2022-12-18T00:58:17.411Z,19.9
2022-12-18T00:59:57.729Z,19.9
2022-12-18T01:01:38.211Z,16.2
2022-12-18T01:03:18.354Z,16.2
2022-12-18T01:04:58.596Z,16.2
2022-12-18T01:06:38.894Z,16.2
2022-12-18T01:08:19.175Z,16.2
2022-12-18T01:09:59.500Z,16.2
2022-12-18T01:11:39.806Z,19.2
2022-12-18T01:13:20.089Z,19.2
2022-12-18T01:15:00.402Z,19.2
2022-12-18T01:16:40.867Z,19.2
2022-12-18T01:18:20.988Z,19.2
2022-12-18T01:20:01.321Z,19.2
2022-12-18T01:21:41.588Z,17.2
2022-12-18T01:23:21.893Z,17.2
2022-12-18T01:25:02.191Z,17.2
2022-12-18T01:26:42.464Z,17.2
2022-12-18T01:28:22.764Z,17.2
2022-12-18T01:30:03.072Z,17.2
2022-12-18T01:31:43.453Z,17.8
2022-12-18T01:33:23.629Z,17.8
2022-12-18T01:35:03.969Z,17.8
2022-12-18T01:36:44.239Z,17.8
2022-12-18T01:38:24.542Z,17.8
2022-12-18T01:40:04.863Z,17.8
2022-12-18T01:41:45.146Z,16
2022-12-18T01:43:25.461Z,16
2022-12-18T01:45:05.773Z,16
2022-12-18T01:46:46.041Z,16
2022-12-18T01:48:26.326Z,16
2022-12-18T01:50:06.637Z,16
2022-12-18T01:51:46.922Z,16.4
2022-12-18T01:53:27.226Z,16.4
2022-12-18T01:55:07.543Z,16.4
2022-12-18T01:56:47.818Z,16.4
2022-12-18T01:58:28.167Z,16.4
2022-12-18T02:00:08.441Z,16.4
2022-12-18T02:01:48.939Z,13.1
2022-12-18T02:05:09.400Z,13.1
2022-12-18T02:06:49.752Z,13.1
2022-12-18T02:08:30.039Z,13.1
2022-12-18T02:10:10.335Z,13.1
2022-12-18T02:11:50.610Z,14.4
2022-12-18T02:13:30.933Z,14.4
2022-12-18T02:15:11.217Z,14.4
2022-12-18T02:16:51.560Z,14.4
2022-12-18T02:18:31.831Z,14.4
2022-12-18T02:20:12.130Z,14.4
2022-12-18T02:21:52.397Z,12.2
2022-12-18T02:23:32.701Z,12.2
2022-12-18T02:25:13.014Z,12.2
2022-12-18T02:26:53.293Z,12.2
2022-12-18T02:28:33.580Z,12.2
2022-12-18T02:30:13.889Z,12.2
2022-12-18T02:31:54.176Z,9.7
2022-12-18T02:33:34.495Z,9.7
2022-12-18T02:35:14.771Z,9.7
2022-12-18T02:36:55.066Z,9.7
2022-12-18T02:38:35.381Z,9.7
2022-12-18T02:40:15.661Z,9.7
2022-12-18T02:41:55.964Z,13
2022-12-18T02:43:36.589Z,13
2022-12-18T02:45:16.551Z,13
2022-12-18T02:46:56.854Z,13
2022-12-18T02:48:37.156Z,13
2022-12-18T02:50:17.409Z,13
2022-12-18T02:51:57.716Z,15.1
2022-12-18T02:53:38.450Z,15.1
2022-12-18T02:55:18.304Z,15.1
2022-12-18T02:56:58.590Z,15.1
2022-12-18T02:58:38.896Z,15.1
2022-12-18T03:00:19.172Z,15.1
2022-12-18T03:01:59.723Z,15.1
2022-12-18T03:03:40.115Z,12.4
2022-12-18T03:10:21.086Z,12.4
2022-12-18T03:12:01.437Z,12.4
2022-12-18T03:13:42.287Z,15.7
2022-12-18T03:17:02.713Z,15.7
2022-12-18T03:18:42.969Z,15.7
2022-12-18T03:20:23.249Z,15.7
2022-12-18T03:22:03.536Z,14.5
2022-12-18T03:23:44.325Z,14.5
2022-12-18T03:25:24.139Z,14.5
2022-12-18T03:27:04.430Z,14.5
2022-12-18T03:28:44.732Z,14.5
2022-12-18T03:30:25.030Z,14.5
2022-12-18T03:32:05.348Z,13
2022-12-18T03:33:45.632Z,13
2022-12-18T03:35:25.902Z,13
2022-12-18T03:37:06.219Z,13
2022-12-18T03:38:46.502Z,13
2022-12-18T03:40:26.800Z,13
2022-12-18T03:42:07.122Z,13
2022-12-18T03:43:47.421Z,14.7
2022-12-18T03:45:27.707Z,14.7
2022-12-18T03:47:08.015Z,14.7
2022-12-18T03:48:48.317Z,14.7
2022-12-18T03:50:28.624Z,14.7
2022-12-18T03:52:08.912Z,14.7
2022-12-18T03:53:49.205Z,15.6
2022-12-18T03:55:29.520Z,15.6
2022-12-18T03:57:09.872Z,15.6
2022-12-18T03:58:50.125Z,15.6
2022-12-18T04:00:30.431Z,15.6
2022-12-18T04:02:10.850Z,15.6
2022-12-18T04:03:51.080Z,9.1
2022-12-18T04:05:31.315Z,9.1
2022-12-18T04:07:11.617Z,9.1
2022-12-18T04:08:51.889Z,9.1
2022-12-18T04:10:32.200Z,9.1
2022-12-18T04:12:12.500Z,9.1
2022-12-18T04:13:52.801Z,14.4
2022-12-18T04:15:33.146Z,14.4
2022-12-18T04:17:13.368Z,14.4
2022-12-18T04:18:53.650Z,14.4
2022-12-18T04:20:33.938Z,14.4
2022-12-18T04:22:14.255Z,14.4
2022-12-18T04:23:54.525Z,15
2022-12-18T04:25:34.831Z,15
2022-12-18T04:27:15.132Z,15
2022-12-18T04:28:55.410Z,15
2022-12-18T04:30:35.699Z,15
2022-12-18T04:32:16.014Z,15
2022-12-18T04:33:56.292Z,12.7
2022-12-18T04:35:36.593Z,12.7
2022-12-18T04:37:16.868Z,12.7
2022-12-18T04:38:57.166Z,12.7
2022-12-18T04:40:37.487Z,12.7
2022-12-18T04:42:17.785Z,12.7
2022-12-18T04:43:58.070Z,13.9
2022-12-18T04:45:38.375Z,13.9
2022-12-18T04:47:18.664Z,13.9
2022-12-18T04:48:58.970Z,13.9
2022-12-18T04:50:39.286Z,13.9
2022-12-18T04:52:19.592Z,13.9
2022-12-18T04:53:59.859Z,13.6
2022-12-18T04:55:40.150Z,13.6
2022-12-18T04:57:20.631Z,13.6
2022-12-18T04:59:00.745Z,13.6
2022-12-18T05:00:41.045Z,13.6
2022-12-18T05:02:21.472Z,13.6
2022-12-18T05:04:01.735Z,11.7
2022-12-18T05:05:41.931Z,11.7
2022-12-18T05:07:22.249Z,11.7
2022-12-18T05:09:02.533Z,11.7
2022-12-18T05:10:42.826Z,11.7
2022-12-18T05:12:23.124Z,11.7
2022-12-18T05:14:03.410Z,13.9
2022-12-18T05:15:43.810Z,13.9
2022-12-18T05:17:24.011Z,13.9
2022-12-18T05:19:04.317Z,13.9
2022-12-18T05:20:44.590Z,13.9
2022-12-18T05:22:24.902Z,13.9
2022-12-18T05:24:05.169Z,14
2022-12-18T05:25:45.471Z,14
2022-12-18T05:27:25.771Z,14
2022-12-18T05:29:06.069Z,14
2022-12-18T05:30:46.352Z,14
2022-12-18T05:32:26.663Z,14
2022-12-18T05:34:06.954Z,11.2
2022-12-18T05:35:47.269Z,11.2
2022-12-18T05:37:27.539Z,11.2
2022-12-18T05:39:08.053Z,11.2
2022-12-18T05:40:48.154Z,11.2
2022-12-18T05:42:28.440Z,11.2
2022-12-18T05:44:08.739Z,11.6
2022-12-18T05:45:49.074Z,11.6
2022-12-18T05:47:29.356Z,11.6
2022-12-18T05:49:09.644Z,11.6
2022-12-18T05:50:50.061Z,11.6
2022-12-18T05:52:30.222Z,11.6
2022-12-18T05:54:10.519Z,10.7
2022-12-18T05:55:50.829Z,10.7
2022-12-18T05:57:31.124Z,10.7
2022-12-18T05:59:11.450Z,10.7
2022-12-18T06:00:51.702Z,10.7
2022-12-18T06:02:32.069Z,10.7
2022-12-18T06:04:12.341Z,8.7
2022-12-18T06:05:58.860Z,8.7
2022-12-18T06:07:39.295Z,8.7
2022-12-18T06:09:19.617Z,8.7
2022-12-18T06:11:00.015Z,8.7
2022-12-18T06:12:40.409Z,8.7
2022-12-18T06:14:20.801Z,10.9
2022-12-18T06:16:01.237Z,10.9
2022-12-18T06:17:41.648Z,10.9
2022-12-18T06:19:22.021Z,10.9
2022-12-18T06:21:02.348Z,10.9
2022-12-18T06:22:42.713Z,10.9
2022-12-18T06:24:23.107Z,13.9
2022-12-18T06:26:03.472Z,13.9
2022-12-18T06:27:43.827Z,13.9
2022-12-18T06:29:24.261Z,13.9
2022-12-18T06:31:04.804Z,13.9
2022-12-18T06:32:45.053Z,13.9
2022-12-18T06:34:25.479Z,12.1
2022-12-18T06:36:05.824Z,12.1
2022-12-18T06:37:46.236Z,12.1
2022-12-18T06:39:26.516Z,12.1
2022-12-18T06:41:06.829Z,12.1
2022-12-18T06:42:47.129Z,12.1
2022-12-18T06:44:27.411Z,15.5
2022-12-18T06:46:07.792Z,15.5
2022-12-18T06:47:47.988Z,15.5
2022-12-18T06:49:30.590Z,15.5
2022-12-18T06:51:08.622Z,15.5
2022-12-18T06:52:48.922Z,15.5
2022-12-18T06:54:29.180Z,12
2022-12-18T06:56:10.865Z,12
2022-12-18T06:57:49.782Z,12
2022-12-18T06:59:30.079Z,12
2022-12-18T07:01:10.425Z,12
2022-12-18T07:02:50.753Z,12
2022-12-18T07:04:30.954Z,12.4
2022-12-18T07:06:11.255Z,12.4
2022-12-18T07:07:51.552Z,12.4
2022-12-18T07:09:31.830Z,12.4
2022-12-18T07:11:12.149Z,12.4
2022-12-18T07:12:52.442Z,12.4
2022-12-18T07:14:32.735Z,12
2022-12-18T07:16:20.841Z,12
2022-12-18T07:17:53.325Z,12
2022-12-18T07:19:39.288Z,12
2022-12-18T07:21:19.649Z,12
2022-12-18T07:23:00.009Z,12
2022-12-18T07:24:40.386Z,13.2
2022-12-18T07:26:20.707Z,13.2
2022-12-18T07:28:01.063Z,13.2
2022-12-18T07:29:41.426Z,13.2
2022-12-18T07:31:22.167Z,13.2
2022-12-18T07:33:02.142Z,13.2
2022-12-18T07:34:42.467Z,12.2
2022-12-18T07:36:22.909Z,12.2
2022-12-18T07:38:03.254Z,12.2
2022-12-18T07:39:43.614Z,12.2
2022-12-18T07:41:23.949Z,12.2
2022-12-18T07:43:04.297Z,12.2
2022-12-18T07:44:44.647Z,13
2022-12-18T07:46:25.083Z,13
2022-12-18T07:48:05.351Z,13
2022-12-18T07:49:45.752Z,13
2022-12-18T07:51:26.107Z,13
2022-12-18T07:53:06.521Z,13
2022-12-18T07:54:51.783Z,15
2022-12-18T07:56:37.575Z,15
2022-12-18T07:58:17.940Z,15
2022-12-18T07:59:58.232Z,15
2022-12-18T08:01:38.600Z,15
2022-12-18T08:03:18.851Z,15
2022-12-18T08:04:59.046Z,19
2022-12-18T08:06:42.582Z,19
2022-12-18T08:08:19.624Z,19
2022-12-18T08:09:59.981Z,19
2022-12-18T08:11:40.420Z,19
2022-12-18T08:13:20.789Z,19
2022-12-18T08:15:01.197Z,29.8
2022-12-18T08:16:41.579Z,29.8
2022-12-18T08:18:21.973Z,29.8
2022-12-18T08:20:02.409Z,29.8
2022-12-18T08:21:42.768Z,29.8
2022-12-18T08:23:23.112Z,29.8
2022-12-18T08:25:03.482Z,14.9
2022-12-18T08:27:00.901Z,14.9
2022-12-18T08:28:24.159Z,14.9
2022-12-18T08:30:04.544Z,14.9
2022-12-18T08:31:45.001Z,14.9
2022-12-18T08:33:25.235Z,14.9
2022-12-18T08:35:05.535Z,14.5
2022-12-18T08:36:45.851Z,14.5
2022-12-18T08:38:26.215Z,14.5
2022-12-18T08:40:06.553Z,14.5
2022-12-18T08:41:46.789Z,14.5
2022-12-18T08:43:27.051Z,14.5
2022-12-18T08:45:07.340Z,13.8
2022-12-18T08:46:47.720Z,13.8
2022-12-18T08:48:28.085Z,13.8
2022-12-18T08:50:08.440Z,13.8
2022-12-18T08:51:48.775Z,13.8
2022-12-18T08:53:32.770Z,13.8
2022-12-18T08:55:09.409Z,12.8
2022-12-18T08:56:49.718Z,12.8
2022-12-18T08:58:30.042Z,12.8
2022-12-18T09:00:10.373Z,12.8
2022-12-18T09:01:50.829Z,12.8
2022-12-18T09:03:31.120Z,12.8
2022-12-18T09:05:11.386Z,12.9
2022-12-18T09:06:51.671Z,12.9
2022-12-18T09:08:32.005Z,12.9
2022-12-18T09:10:12.338Z,12.9
2022-12-18T09:11:52.663Z,12.9
2022-12-18T09:13:32.966Z,12.9
2022-12-18T09:15:13.302Z,11.6
2022-12-18T09:16:53.686Z,11.6
2022-12-18T09:18:33.895Z,11.6
2022-12-18T09:20:14.263Z,11.6
2022-12-18T09:21:54.587Z,11.6
2022-12-18T09:23:34.902Z,11.6
2022-12-18T09:25:15.205Z,13.1
2022-12-18T09:26:57.853Z,13.1
2022-12-18T09:28:35.873Z,13.1
2022-12-18T09:30:16.185Z,13.1
2022-12-18T09:31:56.478Z,13.1
2022-12-18T09:33:36.732Z,13.1
2022-12-18T09:35:16.876Z,15.8
2022-12-18T09:36:57.215Z,15.8
2022-12-18T09:38:41.167Z,15.8
2022-12-18T09:40:17.944Z,15.8
2022-12-18T09:41:58.310Z,15.8
2022-12-18T09:43:38.699Z,15.8
2022-12-18T09:45:19.203Z,15.7
2022-12-18T09:46:59.333Z,15.7
2022-12-18T09:48:40.084Z,15.7
2022-12-18T09:50:19.974Z,15.7
2022-12-18T09:52:00.290Z,15.7
2022-12-18T09:53:40.631Z,15.7
2022-12-18T09:55:20.932Z,18.6
2022-12-18T09:57:01.264Z,18.6
2022-12-18T09:58:41.880Z,18.6
2022-12-18T10:00:22.029Z,18.6
2022-12-18T10:02:02.406Z,18.6
2022-12-18T10:03:42.580Z,18.6
2022-12-18T10:05:22.867Z,15.7
2022-12-18T10:07:08.994Z,15.7
2022-12-18T10:08:43.778Z,15.7
2022-12-18T10:10:23.861Z,15.7
2022-12-18T10:12:04.149Z,15.7
2022-12-18T10:13:44.490Z,15.7
2022-12-18T10:15:24.784Z,10.4
2022-12-18T10:17:05.105Z,10.4
2022-12-18T10:18:45.410Z,10.4
2022-12-18T10:20:25.726Z,10.4
2022-12-18T10:22:06.038Z,10.4
2022-12-18T10:23:48.363Z,10.4
2022-12-18T10:25:26.695Z,8.3
2022-12-18T10:27:07.006Z,8.3
2022-12-18T10:28:47.340Z,8.3
2022-12-18T10:30:27.647Z,8.3
2022-12-18T10:32:07.999Z,8.3
2022-12-18T10:33:48.296Z,8.3
2022-12-18T10:35:28.590Z,12.1
2022-12-18T10:37:08.967Z,12.1
2022-12-18T10:38:49.275Z,12.1
2022-12-18T10:40:29.572Z,12.1
2022-12-18T10:42:09.895Z,12.1
2022-12-18T10:43:50.228Z,12.1
2022-12-18T10:45:30.538Z,10.7
2022-12-18T10:47:12.044Z,10.7
2022-12-18T10:48:51.186Z,10.7
2022-12-18T10:51:01.329Z,10.7
2022-12-18T10:52:11.828Z,10.7
2022-12-18T10:53:52.130Z,10.7
2022-12-18T10:55:32.490Z,14.1
2022-12-18T10:57:12.775Z,14.1
2022-12-18T10:58:53.099Z,14.1
2022-12-18T11:00:33.431Z,14.1
2022-12-18T11:02:13.881Z,14.1
2022-12-18T11:03:57.702Z,14.1
2022-12-18T11:05:34.403Z,13.3
2022-12-18T11:07:14.718Z,13.3
2022-12-18T11:08:55.051Z,13.3
2022-12-18T11:10:35.389Z,13.3
2022-12-18T11:12:15.681Z,13.3
2022-12-18T11:13:56.013Z,13.3
2022-12-18T11:15:36.330Z,14.6
2022-12-18T11:17:25.799Z,14.6
2022-12-18T11:18:56.955Z,14.6
2022-12-18T11:20:37.648Z,14.6
2022-12-18T11:22:20.662Z,14.6
2022-12-18T11:23:57.929Z,14.6
2022-12-18T11:25:38.249Z,10.8
2022-12-18T11:27:18.579Z,10.8
2022-12-18T11:28:58.907Z,10.8
2022-12-18T11:30:39.143Z,10.8
2022-12-18T11:32:19.374Z,10.8
2022-12-18T11:34:27.435Z,10.8
2022-12-18T11:35:40.137Z,19.1
2022-12-18T11:37:20.493Z,19.1
2022-12-18T11:39:00.812Z,19.1
2022-12-18T11:40:41.701Z,19.1
2022-12-18T11:42:21.433Z,19.1
2022-12-18T11:44:01.757Z,19.1
2022-12-18T11:45:42.097Z,19.4
2022-12-18T11:47:22.523Z,19.4
2022-12-18T11:49:02.745Z,19.4
2022-12-18T11:50:43.036Z,19.4
2022-12-18T11:52:23.355Z,19.4
2022-12-18T11:54:03.673Z,19.4
2022-12-18T11:55:43.999Z,9.9
2022-12-18T11:57:24.348Z,9.9
2022-12-18T11:59:04.645Z,9.9
2022-12-18T12:00:44.968Z,9.9
2022-12-18T12:02:25.402Z,9.9
2022-12-18T12:04:05.660Z,9.9
2022-12-18T12:05:45.945Z,9.5
2022-12-18T12:07:26.290Z,9.5
2022-12-18T12:09:06.574Z,9.5
2022-12-18T12:10:46.978Z,9.5
2022-12-18T12:12:27.305Z,9.5
2022-12-18T12:14:07.721Z,9.5
2022-12-18T12:15:48.055Z,9.4
2022-12-18T12:17:28.405Z,9.4
2022-12-18T12:19:08.790Z,9.4
2022-12-18T12:20:49.204Z,9.4
2022-12-18T12:22:29.515Z,9.4
2022-12-18T12:24:09.844Z,9.4
2022-12-18T12:25:50.199Z,7.7
2022-12-18T12:27:30.552Z,7.7
2022-12-18T12:29:10.892Z,7.7
2022-12-18T12:30:51.193Z,7.7
2022-12-18T12:32:31.554Z,7.7
2022-12-18T12:34:11.881Z,7.7
2022-12-18T12:35:52.317Z,9.5
2022-12-18T12:37:32.724Z,9.5
2022-12-18T12:39:13.119Z,9.5
2022-12-18T12:40:58.838Z,9.5
2022-12-18T12:42:33.780Z,9.5
2022-12-18T12:44:14.205Z,9.5
2022-12-18T12:45:54.590Z,6.3
2022-12-18T12:47:34.890Z,6.3
2022-12-18T12:49:15.297Z,6.3
2022-12-18T12:50:55.739Z,6.3
2022-12-18T12:52:36.016Z,6.3
2022-12-18T12:54:16.333Z,6.3
2022-12-18T12:55:56.639Z,8.5
2022-12-18T12:57:37.001Z,8.5
2022-12-18T12:59:17.359Z,8.5
2022-12-18T13:00:57.785Z,8.5
2022-12-18T13:02:38.140Z,8.5
2022-12-18T13:04:18.464Z,8.5
2022-12-18T13:05:58.909Z,9.8
2022-12-18T13:07:39.371Z,9.8
2022-12-18T13:09:19.839Z,9.8
2022-12-18T13:11:00.191Z,9.8
2022-12-18T13:12:40.502Z,9.8
2022-12-18T13:14:20.895Z,9.8
2022-12-18T13:16:01.314Z,8.1
2022-12-18T13:17:41.667Z,8.1
2022-12-18T13:19:22.013Z,8.1
2022-12-18T13:21:03.830Z,8.1
2022-12-18T13:22:42.772Z,8.1
2022-12-18T13:24:23.137Z,8.1
2022-12-18T13:26:03.520Z,9.1
2022-12-18T13:27:43.845Z,9.1
2022-12-18T13:29:24.163Z,9.1
2022-12-18T13:31:04.451Z,9.1
2022-12-18T13:32:44.884Z,9.1
2022-12-18T13:36:05.548Z,14.6
2022-12-18T13:37:46.075Z,14.6
2022-12-18T13:39:32.690Z,14.6
2022-12-18T13:41:06.732Z,14.6
2022-12-18T13:42:47.142Z,14.6
2022-12-18T13:46:07.864Z,12.5
2022-12-18T13:47:48.235Z,12.5
2022-12-18T13:49:28.617Z,12.5
2022-12-18T13:51:08.989Z,12.5
2022-12-18T13:52:49.364Z,12.5
2022-12-18T13:54:29.711Z,12.5
2022-12-18T13:56:10.150Z,9.7
2022-12-18T13:57:50.457Z,9.7
2022-12-18T13:59:30.951Z,9.7
2022-12-18T14:01:11.282Z,9.7
2022-12-18T14:02:51.766Z,9.7
2022-12-18T14:04:31.988Z,9.7
2022-12-18T14:06:12.319Z,7.3
2022-12-18T14:07:53.060Z,7.3
2022-12-18T14:09:33.051Z,7.3
2022-12-18T14:11:13.370Z,7.3
2022-12-18T14:12:53.739Z,7.3
2022-12-18T14:14:34.042Z,7.3
2022-12-18T14:16:14.430Z,7.3
2022-12-18T14:17:54.778Z,7.1
2022-12-18T14:19:35.030Z,7.1
2022-12-18T14:21:15.377Z,7.1
2022-12-18T14:22:55.686Z,7.1
2022-12-18T14:24:37.125Z,7.1
2022-12-18T14:26:16.501Z,8.2
2022-12-18T14:27:56.871Z,8.2
2022-12-18T14:29:37.375Z,8.2
2022-12-18T14:31:17.722Z,8.2
2022-12-18T14:32:58.035Z,8.2
2022-12-18T14:34:38.441Z,8.2
2022-12-18T14:36:18.868Z,8.2
2022-12-18T14:37:59.234Z,10.3
2022-12-18T14:39:39.618Z,10.3
2022-12-18T14:41:20.013Z,10.3
2022-12-18T14:43:00.378Z,10.3
2022-12-18T14:45:05.310Z,10.3
2022-12-18T14:46:21.263Z,10.3
2022-12-18T14:48:01.648Z,14.6
2022-12-18T14:49:41.960Z,14.6
2022-12-18T14:51:22.348Z,14.6
2022-12-18T14:53:02.719Z,14.6
2022-12-18T14:54:43.145Z,14.6
2022-12-18T14:56:23.563Z,14.6
2022-12-18T14:58:03.893Z,17.8
2022-12-18T14:59:44.289Z,17.8
2022-12-18T15:01:24.849Z,17.8
2022-12-18T15:03:05.076Z,17.8
2022-12-18T15:04:45.321Z,17.8
2022-12-18T15:06:28.770Z,17.8
2022-12-18T15:08:06.081Z,15.8
2022-12-18T15:09:46.453Z,15.8
2022-12-18T15:11:26.851Z,15.8
2022-12-18T15:13:07.188Z,15.8
2022-12-18T15:14:47.523Z,15.8
2022-12-18T15:16:27.989Z,15.8
2022-12-18T15:18:08.190Z,14.7
2022-12-18T15:19:48.644Z,14.7
2022-12-18T15:21:29.056Z,14.7
2022-12-18T15:23:09.366Z,14.7
2022-12-18T15:24:49.678Z,14.7
2022-12-18T15:26:30.031Z,14.7
2022-12-18T15:28:10.364Z,7.3
2022-12-18T15:29:50.658Z,7.3
2022-12-18T15:31:31.066Z,7.3
2022-12-18T15:33:11.317Z,7.3
2022-12-18T15:34:51.610Z,7.3
2022-12-18T15:36:31.967Z,7.3
2022-12-18T15:38:12.309Z,7.9
2022-12-18T15:39:52.614Z,7.9
2022-12-18T15:41:33.005Z,7.9
2022-12-18T15:43:13.397Z,7.9
2022-12-18T15:44:53.752Z,7.9
2022-12-18T15:46:34.300Z,7.9
2022-12-18T15:48:14.531Z,6.6
2022-12-18T15:49:54.897Z,6.6
2022-12-18T15:51:35.247Z,6.6
2022-12-18T15:53:15.690Z,6.6
2022-12-18T15:54:55.958Z,6.6
2022-12-18T15:56:36.308Z,6.6
2022-12-18T15:58:16.647Z,10.5
2022-12-18T15:59:57.046Z,10.5
2022-12-18T16:01:42.284Z,10.5
2022-12-18T16:03:17.922Z,10.5
2022-12-18T16:04:58.162Z,10.5
2022-12-18T16:07:05.381Z,10.5
2022-12-18T16:08:18.909Z,6.6
2022-12-18T16:10:00.283Z,6.6
2022-12-18T16:11:39.657Z,6.6
2022-12-18T16:13:20.085Z,6.6
2022-12-18T16:15:00.451Z,6.6
2022-12-18T16:16:40.854Z,6.6
2022-12-18T16:18:21.251Z,7.6
2022-12-18T16:20:01.624Z,7.6
2022-12-18T16:21:42.007Z,7.6
2022-12-18T16:23:22.347Z,7.6
2022-12-18T16:25:02.727Z,7.6
2022-12-18T16:26:43.134Z,7.6
2022-12-18T16:28:23.467Z,9.4
2022-12-18T16:30:03.894Z,9.4
2022-12-18T16:31:44.343Z,9.4
2022-12-18T16:33:24.679Z,9.4
2022-12-18T16:35:05.044Z,9.4
2022-12-18T16:36:45.429Z,9.4
2022-12-18T16:38:25.721Z,7.3
2022-12-18T16:40:06.137Z,7.3
2022-12-18T16:41:46.549Z,7.3
2022-12-18T16:43:26.932Z,7.3
2022-12-18T16:45:07.270Z,7.3
2022-12-18T16:46:47.822Z,7.3
2022-12-18T16:48:28.032Z,6.4
2022-12-18T16:50:08.422Z,6.4
2022-12-18T16:51:48.824Z,6.4
2022-12-18T16:53:29.141Z,6.4
2022-12-18T16:55:09.441Z,6.4
2022-12-18T16:56:49.786Z,6.4
2022-12-18T16:58:30.093Z,7
2022-12-18T17:00:10.391Z,7
2022-12-18T17:01:50.856Z,7
2022-12-18T17:03:31.125Z,7
2022-12-18T17:05:17.707Z,7
2022-12-18T17:07:03.867Z,7
2022-12-18T17:08:44.260Z,6.4
2022-12-18T17:10:24.741Z,6.4
2022-12-18T17:12:05.138Z,6.4
2022-12-18T17:13:45.604Z,6.4
2022-12-18T17:15:25.949Z,6.4
2022-12-18T17:17:23.312Z,6.4
2022-12-18T17:18:46.788Z,6.8
2022-12-18T17:20:27.210Z,6.8
2022-12-18T17:22:07.575Z,6.8
2022-12-18T17:23:47.906Z,6.8
2022-12-18T17:25:28.159Z,6.8
2022-12-18T17:27:08.475Z,6.8
2022-12-18T17:28:48.760Z,9.8
2022-12-18T17:30:29.056Z,9.8
2022-12-18T17:32:09.371Z,9.8
2022-12-18T17:33:49.638Z,9.8
2022-12-18T17:35:29.930Z,9.8
2022-12-18T17:37:10.240Z,9.8
2022-12-18T17:38:50.524Z,7.6
2022-12-18T17:40:30.831Z,7.6
2022-12-18T17:42:15.061Z,7.6
2022-12-18T17:43:51.419Z,7.6
2022-12-18T17:45:31.701Z,7.6
2022-12-18T17:47:12.074Z,7.6
2022-12-18T17:48:52.317Z,9.1
2022-12-18T17:52:12.908Z,9.1
2022-12-18T17:53:53.189Z,9.1
2022-12-18T17:55:33.485Z,9.1
2022-12-18T17:57:13.794Z,9.1
2022-12-18T17:58:54.073Z,8
2022-12-18T18:00:34.364Z,8
2022-12-18T18:02:14.927Z,8
2022-12-18T18:03:55.035Z,8
2022-12-18T18:05:35.242Z,8
2022-12-18T18:07:15.550Z,8
2022-12-18T18:08:55.904Z,8.4
2022-12-18T18:10:36.256Z,8.4
2022-12-18T18:12:16.656Z,8.4
2022-12-18T18:13:57.017Z,8.4
2022-12-18T18:15:37.348Z,8.4
2022-12-18T18:17:17.708Z,8.4
2022-12-18T18:18:58.116Z,11.2
2022-12-18T18:20:38.560Z,11.2
2022-12-18T18:22:18.959Z,11.2
2022-12-18T18:23:59.325Z,11.2
2022-12-18T18:25:39.687Z,11.2
2022-12-18T18:27:20.025Z,11.2
2022-12-18T18:29:00.393Z,9.4
2022-12-18T18:30:40.767Z,9.4
2022-12-18T18:32:21.180Z,9.4
2022-12-18T18:34:01.663Z,9.4
2022-12-18T18:35:53.830Z,9.4
2022-12-18T18:37:22.350Z,9.4
2022-12-18T18:39:02.726Z,8.5
2022-12-18T18:40:43.117Z,8.5
2022-12-18T18:42:23.511Z,8.5
2022-12-18T18:44:03.855Z,8.5
2022-12-18T18:45:44.322Z,8.5
2022-12-18T18:47:24.656Z,8.5
2022-12-18T18:49:04.941Z,10.5
2022-12-18T18:50:45.223Z,10.5
2022-12-18T18:52:25.529Z,10.5
2022-12-18T18:54:05.795Z,10.5
2022-12-18T18:55:51.768Z,10.5
2022-12-18T18:57:30.321Z,10.5
2022-12-18T18:59:06.688Z,9.7
2022-12-18T19:00:47.076Z,9.7
2022-12-18T19:02:27.434Z,9.7
2022-12-18T19:04:07.547Z,9.7
2022-12-18T19:05:47.846Z,9.7
2022-12-18T19:07:30.258Z,9.7
2022-12-18T19:09:08.444Z,8.4
2022-12-18T19:10:52.038Z,8.4
2022-12-18T19:12:29.052Z,8.4
2022-12-18T19:14:09.319Z,8.4
2022-12-18T19:15:49.615Z,8.4
2022-12-18T19:17:31.574Z,8.4
2022-12-18T19:19:10.203Z,8.2
2022-12-18T19:20:50.508Z,8.2
2022-12-18T19:22:30.794Z,8.2
2022-12-18T19:24:11.133Z,8.2
2022-12-18T19:26:04.199Z,8.2
2022-12-18T19:27:31.696Z,8.2
2022-12-18T19:29:12.021Z,6.9
2022-12-18T19:30:56.413Z,6.9
2022-12-18T19:32:32.720Z,6.9
2022-12-18T19:34:12.877Z,6.9
2022-12-18T19:35:53.172Z,6.9
2022-12-18T19:37:33.462Z,6.9
2022-12-18T19:39:13.774Z,8.2
2022-12-18T19:40:54.058Z,8.2
2022-12-18T19:42:35.674Z,8.2
2022-12-18T19:44:14.649Z,8.2
2022-12-18T19:45:55.101Z,8.2
2022-12-18T19:47:35.256Z,8.2
2022-12-18T19:49:38.482Z,10.5
2022-12-18T19:50:55.827Z,10.5
2022-12-18T19:52:39.171Z,10.5
2022-12-18T19:54:17.619Z,10.5
2022-12-18T19:55:56.715Z,10.5
2022-12-18T19:57:37.004Z,10.5
2022-12-18T19:59:17.328Z,10.7
2022-12-18T20:00:57.669Z,10.7
2022-12-18T20:02:38.034Z,10.7
2022-12-18T20:04:18.256Z,10.7
2022-12-18T20:05:58.475Z,10.7
2022-12-18T20:07:38.794Z,10.7
2022-12-18T20:09:19.107Z,24.9
2022-12-18T20:10:59.351Z,24.9
2022-12-18T20:12:39.689Z,24.9
2022-12-18T20:14:23.557Z,24.9
2022-12-18T20:16:00.275Z,24.9
2022-12-18T20:17:40.574Z,24.9
2022-12-18T20:19:20.882Z,10.1
2022-12-18T20:21:01.153Z,10.1
2022-12-18T20:22:41.482Z,10.1
2022-12-18T20:24:21.801Z,10.1
2022-12-18T20:26:02.107Z,10.1
2022-12-18T20:27:42.407Z,10.1
2022-12-18T20:29:22.686Z,12.4
2022-12-18T20:31:03.002Z,12.4
2022-12-18T20:32:43.289Z,12.4
2022-12-18T20:34:23.619Z,12.4
2022-12-18T20:36:03.871Z,12.4
2022-12-18T20:37:49.799Z,12.4
2022-12-18T20:39:24.485Z,9.3
2022-12-18T20:41:04.743Z,9.3
2022-12-18T20:42:45.051Z,9.3
2022-12-18T20:44:25.340Z,9.3
2022-12-18T20:46:05.742Z,9.3
2022-12-18T20:47:45.945Z,9.3
2022-12-18T20:49:26.231Z,9.4
2022-12-18T20:51:06.551Z,9.4
2022-12-18T20:52:46.815Z,9.4
2022-12-18T20:54:27.114Z,9.4
2022-12-18T20:56:07.425Z,9.4
2022-12-18T20:57:47.732Z,9.4
2022-12-18T20:59:28.001Z,11.3
2022-12-18T21:01:08.372Z,11.3
2022-12-18T21:02:48.716Z,11.3
2022-12-18T21:04:28.903Z,11.3
2022-12-18T21:06:09.184Z,11.3
2022-12-18T21:07:49.509Z,11.3
2022-12-18T21:09:32.857Z,13.4
2022-12-18T21:11:10.086Z,13.4
2022-12-18T21:12:58.762Z,13.4
2022-12-18T21:14:30.687Z,13.4
2022-12-18T21:16:10.988Z,13.4
2022-12-18T21:17:51.434Z,13.4
2022-12-18T21:19:31.765Z,10.6
2022-12-18T21:21:12.141Z,10.6
2022-12-18T21:22:52.564Z,10.6
2022-12-18T21:24:33.255Z,10.6
2022-12-18T21:26:13.240Z,10.6
2022-12-18T21:27:53.673Z,10.6
2022-12-18T21:29:34.079Z,10.4
2022-12-18T21:31:14.526Z,10.4
2022-12-18T21:32:54.816Z,10.4
2022-12-18T21:34:35.208Z,10.4
2022-12-18T21:36:15.679Z,10.4
2022-12-18T21:37:56.034Z,10.4
2022-12-18T21:39:36.351Z,11.8
2022-12-18T21:41:16.721Z,11.8
2022-12-18T21:42:57.127Z,11.8
2022-12-18T21:44:41.673Z,11.8
2022-12-18T21:46:18.054Z,11.8
2022-12-18T21:47:58.281Z,11.8
2022-12-18T21:49:38.700Z,13.3
2022-12-18T21:51:19.043Z,13.3
2022-12-18T21:52:59.463Z,13.3
2022-12-18T21:54:39.807Z,13.3
2022-12-18T21:56:20.086Z,13.3
2022-12-18T21:58:00.414Z,13.3
2022-12-18T21:59:40.671Z,10.7
2022-12-18T22:01:21.065Z,10.7
2022-12-18T22:03:18.782Z,10.7
2022-12-18T22:04:41.570Z,10.7
2022-12-18T22:06:21.861Z,10.7
2022-12-18T22:08:02.211Z,10.7
2022-12-18T22:09:42.471Z,9.6
2022-12-18T22:11:22.762Z,9.6
2022-12-18T22:13:03.093Z,9.6
2022-12-18T22:14:43.381Z,9.6
2022-12-18T22:16:23.837Z,9.6
2022-12-18T22:18:04.039Z,9.6
2022-12-18T22:19:44.328Z,12.6
2022-12-18T22:21:28.961Z,12.6
2022-12-18T22:23:06.221Z,12.6
2022-12-18T22:24:45.435Z,12.6
2022-12-18T22:26:25.828Z,12.6
2022-12-18T22:28:06.256Z,12.6
2022-12-18T22:29:46.683Z,11.4
2022-12-18T22:31:27.115Z,11.4
2022-12-18T22:33:07.347Z,11.4
2022-12-18T22:34:47.654Z,11.4
2022-12-18T22:36:28.003Z,11.4
2022-12-18T22:38:08.317Z,11.4
2022-12-18T22:39:48.623Z,9.6
2022-12-18T22:41:28.913Z,9.6
2022-12-18T22:43:09.241Z,9.6
2022-12-18T22:44:49.546Z,9.6
2022-12-18T22:46:29.914Z,9.6
2022-12-18T22:48:10.204Z,9.6
2022-12-18T22:49:50.508Z,9.1
2022-12-18T22:51:30.812Z,9.1
2022-12-18T22:53:11.144Z,9.1